createdAt,value
2022-10-25T00:01:08.866Z,64.50
2022-10-25T00:04:05.423Z,64.88
2022-10-25T00:06:38.158Z,64.94
2022-10-25T00:09:13.917Z,65.02
2022-10-25T00:11:49.634Z,64.99
2022-10-25T00:14:22.371Z,65.07
2022-10-25T00:17:41.946Z,64.99
2022-10-25T00:20:16.644Z,64.85
2022-10-25T00:22:46.198Z,64.87
2022-10-25T00:28:28.780Z,64.81
2022-10-25T00:31:07.741Z,64.87
2022-10-25T00:34:07.937Z,65.04
2022-10-25T00:37:03.101Z,64.91
2022-10-25T00:39:32.417Z,64.85
2022-10-25T00:42:29.570Z,64.80
2022-10-25T00:45:35.354Z,64.48
2022-10-25T00:52:05.149Z,64.73
2022-10-25T00:54:53.666Z,64.84
2022-10-25T00:57:35.775Z,64.98
2022-10-25T01:00:16.663Z,64.81
2022-10-25T01:02:49.654Z,64.95
2022-10-25T01:05:23.115Z,64.85
2022-10-25T01:07:53.766Z,64.78
2022-10-25T01:13:50.984Z,64.96
2022-10-25T01:17:16.545Z,65.04
2022-10-25T01:20:17.661Z,65.09
2022-10-25T01:23:00.083Z,64.89
2022-10-25T01:30:10.544Z,64.85
2022-10-25T01:33:37.610Z,64.90
2022-10-25T01:36:41.804Z,64.68
2022-10-25T01:42:55.280Z,64.67
2022-10-25T01:45:28.849Z,64.70
2022-10-25T01:48:35.979Z,64.66
2022-10-25T01:51:39.547Z,64.84
2022-10-25T01:58:31.992Z,64.86
2022-10-25T02:05:08.875Z,65.04
2022-10-25T02:08:16.170Z,65.58
2022-10-25T02:10:57.784Z,65.11
2022-10-25T02:13:44.175Z,65.66
2022-10-25T02:16:41.426Z,66.06
2022-10-25T02:19:44.634Z,66.16
2022-10-25T02:23:29.092Z,65.53
2022-10-25T02:26:04.083Z,65.31
2022-10-25T02:29:00.546Z,65.24
2022-10-25T02:32:22.242Z,65.21
2022-10-25T02:34:55.774Z,65.20
2022-10-25T02:37:51.610Z,65.23
2022-10-25T02:40:24.326Z,65.08
2022-10-25T02:44:06.292Z,65.15
2022-10-25T02:47:25.339Z,65.09
2022-10-25T02:50:00.426Z,65.03
2022-10-25T02:52:35.331Z,64.84
2022-10-25T02:55:12.509Z,64.80
2022-10-25T02:57:41.785Z,64.72
2022-10-25T03:06:39.212Z,64.67
2022-10-25T03:09:13.730Z,64.69
2022-10-25T03:15:29.649Z,64.75
2022-10-25T03:22:09.134Z,64.78
2022-10-25T03:25:31.282Z,64.83
2022-10-25T03:28:01.815Z,64.79
2022-10-25T03:30:34.791Z,64.77
2022-10-25T03:33:08.052Z,64.86
2022-10-25T03:35:47.107Z,64.83
2022-10-25T03:38:15.686Z,64.82
2022-10-25T03:41:39.361Z,64.79
2022-10-25T03:44:57.943Z,64.78
2022-10-25T03:51:42.473Z,64.92
2022-10-25T03:54:15.279Z,65.20
2022-10-25T03:56:47.027Z,65.25
2022-10-25T03:59:18.803Z,65.41
2022-10-25T04:01:50.895Z,65.34
2022-10-25T04:04:23.251Z,65.46
2022-10-25T04:10:11.869Z,66.10
2022-10-25T04:12:42.825Z,66.27
2022-10-25T04:18:41.565Z,66.36
2022-10-25T04:21:17.210Z,66.32
2022-10-25T04:23:53.791Z,66.38
2022-10-25T04:26:50.695Z,66.42
2022-10-25T04:29:51.201Z,66.45
2022-10-25T04:32:27.862Z,66.52
2022-10-25T04:36:12.810Z,66.48
2022-10-25T04:39:15.308Z,66.51
2022-10-25T04:46:08.701Z,66.37
2022-10-25T04:49:04.557Z,66.41
2022-10-25T04:51:58.990Z,66.33
2022-10-25T04:54:54.717Z,66.44
2022-10-25T04:57:24.117Z,66.28
2022-10-25T05:00:00.499Z,66.19
2022-10-25T05:02:57.672Z,66.46
2022-10-25T05:05:30.192Z,66.41
2022-10-25T05:08:23.586Z,66.31
2022-10-25T05:11:02.578Z,66.24
2022-10-25T05:14:04.361Z,66.31
2022-10-25T05:17:02.350Z,66.26
2022-10-25T05:20:03.706Z,66.26
2022-10-25T05:26:44.334Z,66.13
2022-10-25T05:30:02.915Z,66.30
2022-10-25T05:32:37.031Z,66.20
2022-10-25T05:35:37.944Z,65.88
2022-10-25T05:41:34.563Z,66.46
2022-10-25T05:44:38.087Z,66.50
2022-10-25T05:47:17.210Z,66.49
2022-10-25T05:52:46.791Z,66.36
2022-10-25T05:56:11.077Z,66.35
2022-10-25T05:58:42.149Z,66.28
2022-10-25T06:01:16.164Z,66.05
2022-10-25T06:03:53.814Z,65.92
2022-10-25T06:10:20.987Z,66.15
2022-10-25T06:12:50.387Z,66.26
2022-10-25T06:15:50.580Z,66.22
2022-10-25T06:18:47.848Z,66.34
2022-10-25T06:21:24.586Z,66.17
2022-10-25T06:27:33.062Z,66.17
2022-10-25T06:30:35.529Z,66.19
2022-10-25T06:33:58.100Z,66.57
2022-10-25T06:37:21.697Z,66.61
2022-10-25T06:39:59.460Z,66.13
2022-10-25T06:42:30.915Z,65.80
2022-10-25T06:48:22.362Z,65.91
2022-10-25T06:54:56.181Z,65.89
2022-10-25T06:57:49.301Z,65.63
2022-10-25T07:00:25.520Z,65.75
2022-10-25T07:03:33.241Z,65.97
2022-10-25T07:06:39.069Z,66.70
2022-10-25T07:09:15.165Z,66.14
2022-10-25T07:11:45.468Z,65.92
2022-10-25T07:14:39.188Z,65.87
2022-10-25T07:18:23.196Z,65.65
2022-10-25T07:21:06.682Z,65.51
2022-10-25T07:24:00.968Z,65.27
2022-10-25T07:26:32.946Z,65.44
2022-10-25T07:32:03.914Z,65.56
2022-10-25T07:34:59.949Z,65.40
2022-10-25T07:38:22.416Z,65.16
2022-10-25T07:40:58.304Z,65.05
2022-10-25T07:43:30.712Z,65.02
2022-10-25T07:46:07.189Z,64.94
2022-10-25T07:48:38.696Z,64.89
2022-10-25T07:51:13.366Z,64.29
2022-10-25T07:53:44.460Z,64.07
2022-10-25T07:56:24.685Z,64.06
2022-10-25T07:58:56.824Z,63.78
2022-10-25T08:01:28.112Z,63.56
2022-10-25T08:04:47.692Z,63.47
2022-10-25T08:07:18.806Z,63.50
2022-10-25T08:09:52.296Z,63.48
2022-10-25T08:12:25.721Z,63.27
2022-10-25T08:15:00.527Z,63.43
2022-10-25T08:17:30.657Z,63.22
2022-10-25T08:22:55.683Z,63.27
2022-10-25T08:25:29.038Z,63.41
2022-10-25T08:28:50.922Z,63.86
2022-10-25T08:31:19.252Z,64.51
2022-10-25T08:33:48.578Z,68.12
2022-10-25T08:36:21.035Z,69.12
2022-10-25T08:38:55.655Z,66.34
2022-10-25T08:41:37.117Z,66.49
2022-10-25T08:44:28.819Z,66.58
2022-10-25T08:47:27.786Z,66.65
2022-10-25T08:49:59.097Z,66.91
2022-10-25T08:52:35.927Z,67.29
2022-10-25T08:55:41.641Z,67.25
2022-10-25T08:58:34.808Z,67.14
2022-10-25T09:01:13.648Z,67.31
2022-10-25T09:03:48.323Z,67.44
2022-10-25T09:06:33.805Z,67.26
2022-10-25T09:09:27.212Z,66.91
2022-10-25T09:12:01.868Z,66.94
2022-10-25T09:14:38.941Z,67.08
2022-10-25T09:17:18.502Z,67.17
2022-10-25T09:20:08.268Z,67.10
2022-10-25T09:22:47.520Z,66.96
2022-10-25T09:29:12.216Z,66.78
2022-10-25T09:31:45.852Z,66.73
2022-10-25T09:34:21.931Z,66.72
2022-10-25T09:36:58.053Z,67.27
2022-10-25T09:39:59.899Z,66.83
2022-10-25T09:43:03.142Z,66.41
2022-10-25T09:45:43.420Z,66.06
2022-10-25T09:48:26.382Z,66.37
2022-10-25T09:51:08.000Z,66.20
2022-10-25T09:54:04.610Z,65.97
2022-10-25T09:56:59.954Z,66.34
2022-10-25T10:00:20.464Z,66.63
2022-10-25T10:02:54.614Z,66.97
2022-10-25T10:05:50.201Z,66.17
2022-10-25T10:08:20.266Z,66.87
2022-10-25T10:10:52.763Z,67.02
2022-10-25T10:13:47.901Z,66.03
2022-10-25T10:16:22.024Z,66.09
2022-10-25T10:18:54.180Z,66.06
2022-10-25T10:21:24.243Z,65.93
2022-10-25T10:23:54.378Z,65.65
2022-10-25T10:26:28.659Z,65.79
2022-10-25T10:29:23.638Z,65.90
2022-10-25T10:31:59.756Z,66.12
2022-10-25T10:35:02.220Z,66.15
2022-10-25T10:37:35.316Z,66.37
2022-10-25T10:43:35.899Z,66.85
2022-10-25T10:46:27.114Z,67.07
2022-10-25T10:48:57.028Z,65.95
2022-10-25T10:52:15.207Z,65.64
2022-10-25T10:54:54.416Z,65.07
2022-10-25T10:58:37.345Z,64.98
2022-10-25T11:01:12.549Z,64.80
2022-10-25T11:03:59.151Z,64.80
2022-10-25T11:07:17.054Z,64.67
2022-10-25T11:10:16.684Z,64.63
2022-10-25T11:13:41.485Z,64.56
2022-10-25T11:17:01.378Z,64.59
2022-10-25T11:20:15.042Z,64.62
2022-10-25T11:23:22.058Z,64.15
2022-10-25T11:25:55.257Z,63.37
2022-10-25T11:29:02.210Z,62.99
2022-10-25T11:31:42.288Z,62.77
2022-10-25T11:40:49.296Z,60.71
2022-10-25T11:44:10.085Z,60.07
2022-10-25T11:50:42.788Z,59.54
2022-10-25T11:53:31.234Z,59.77
2022-10-25T11:56:07.459Z,59.22
2022-10-25T11:58:44.651Z,58.44
2022-10-25T12:01:35.994Z,58.64
2022-10-25T12:04:20.130Z,57.96
2022-10-25T12:07:06.865Z,58.60
2022-10-25T12:10:25.720Z,58.65
2022-10-25T12:12:58.021Z,58.43
2022-10-25T12:15:39.489Z,58.13
2022-10-25T12:18:20.615Z,56.97
2022-10-25T12:21:32.733Z,57.79
2022-10-25T12:27:18.788Z,57.29
2022-10-25T12:29:55.758Z,57.46
2022-10-25T12:33:40.547Z,57.46
2022-10-25T12:36:39.243Z,56.25
2022-10-25T12:40:00.466Z,56.77
2022-10-25T12:43:45.304Z,56.43
2022-10-25T12:46:55.054Z,55.03
2022-10-25T12:49:59.150Z,55.38
2022-10-25T12:53:09.768Z,55.63
2022-10-25T12:55:55.454Z,56.47
2022-10-25T12:58:40.321Z,57.09
2022-10-25T13:01:49.088Z,57.18
2022-10-25T13:04:43.027Z,56.68
2022-10-25T13:07:17.468Z,56.22
2022-10-25T13:09:50.227Z,56.02
2022-10-25T13:12:37.742Z,56.08
2022-10-25T13:15:23.758Z,55.67
2022-10-25T13:22:39.524Z,54.80
2022-10-25T13:26:03.883Z,54.17
2022-10-25T13:29:23.057Z,53.78
2022-10-25T13:33:14.025Z,53.81
2022-10-25T13:36:09.696Z,53.84
2022-10-25T13:38:47.847Z,53.93
2022-10-25T13:41:33.215Z,53.85
2022-10-25T13:44:52.234Z,53.92
2022-10-25T13:48:10.855Z,53.68
2022-10-25T13:50:51.911Z,54.03
2022-10-25T13:53:39.461Z,53.94
2022-10-25T13:56:21.630Z,54.07
2022-10-25T13:59:52.655Z,54.21
2022-10-25T14:02:25.927Z,54.10
2022-10-25T14:05:59.415Z,54.01
2022-10-25T14:08:45.322Z,54.21
2022-10-25T14:22:08.960Z,54.75
2022-10-25T14:31:38.088Z,54.86
2022-10-25T14:34:18.634Z,54.90
2022-10-25T14:37:16.500Z,54.77
2022-10-25T14:40:21.816Z,54.90
2022-10-25T14:42:55.802Z,54.75
2022-10-25T14:45:34.377Z,54.69
2022-10-25T14:48:15.373Z,54.85
2022-10-25T14:50:50.723Z,55.40
2022-10-25T14:53:22.932Z,55.52
2022-10-25T15:00:02.767Z,55.30
2022-10-25T15:03:06.463Z,55.45
2022-10-25T15:06:31.185Z,55.35
2022-10-25T15:09:47.423Z,55.27
2022-10-25T15:13:57.308Z,55.48
2022-10-25T15:17:05.039Z,55.47
2022-10-25T15:20:02.113Z,55.52
2022-10-25T15:23:03.645Z,55.66
2022-10-25T15:25:46.572Z,55.70
2022-10-25T15:28:43.327Z,55.82
2022-10-25T15:32:03.260Z,56.28
2022-10-25T15:35:23.055Z,56.11
2022-10-25T15:37:58.496Z,56.38
2022-10-25T15:43:51.912Z,56.48
2022-10-25T15:49:59.337Z,56.70
2022-10-25T15:53:00.365Z,56.77
2022-10-25T15:56:04.583Z,56.90
2022-10-25T15:58:36.300Z,56.88
2022-10-25T16:01:09.605Z,56.94
2022-10-25T16:04:26.854Z,57.05
2022-10-25T16:07:03.453Z,56.87
2022-10-25T16:09:32.133Z,56.86
2022-10-25T16:12:05.689Z,56.88
2022-10-25T16:14:40.321Z,57.01
2022-10-25T16:17:19.269Z,56.90
2022-10-25T16:19:49.786Z,56.85
2022-10-25T16:22:20.736Z,56.84
2022-10-25T16:24:59.281Z,56.78
2022-10-25T16:28:48.287Z,56.79
2022-10-25T16:31:46.405Z,56.51
2022-10-25T16:34:23.099Z,56.52
2022-10-25T16:37:20.955Z,56.68
2022-10-25T16:39:59.262Z,56.70
2022-10-25T16:42:38.222Z,56.70
2022-10-25T16:45:23.691Z,56.71
2022-10-25T16:47:59.604Z,56.71
2022-10-25T16:50:33.234Z,56.71
2022-10-25T16:53:10.981Z,56.81
2022-10-25T16:56:30.261Z,56.74
2022-10-25T16:59:00.232Z,56.80
2022-10-25T17:01:39.028Z,57.04
2022-10-25T17:04:38.648Z,57.14
2022-10-25T17:07:15.810Z,57.03
2022-10-25T17:10:12.574Z,56.92
2022-10-25T17:12:51.357Z,57.05
2022-10-25T17:18:53.717Z,57.03
2022-10-25T17:21:48.599Z,57.15
2022-10-25T17:24:18.464Z,57.33
2022-10-25T17:26:54.508Z,57.29
2022-10-25T17:29:49.292Z,57.18
2022-10-25T17:32:21.891Z,57.24
2022-10-25T17:34:50.948Z,57.32
2022-10-25T17:37:20.584Z,57.41
2022-10-25T17:39:49.957Z,57.51
2022-10-25T17:42:23.231Z,57.46
2022-10-25T17:44:51.766Z,57.42
2022-10-25T17:47:49.758Z,57.45
2022-10-25T17:51:12.958Z,57.51
2022-10-25T17:57:15.584Z,57.77
2022-10-25T17:59:52.367Z,57.86
2022-10-25T18:02:23.159Z,57.84
2022-10-25T18:05:27.527Z,57.79
2022-10-25T18:08:03.257Z,58.05
2022-10-25T18:10:38.814Z,58.57
2022-10-25T18:13:15.715Z,58.25
2022-10-25T18:15:52.171Z,57.95
2022-10-25T18:18:22.703Z,58.03
2022-10-25T18:20:57.119Z,57.99
2022-10-25T18:23:55.500Z,58.07
2022-10-25T18:26:31.742Z,57.96
2022-10-25T18:29:06.916Z,58.09
2022-10-25T18:31:47.843Z,58.07
2022-10-25T18:34:44.134Z,58.58
2022-10-25T18:37:20.454Z,58.94
2022-10-25T18:39:54.961Z,59.05
2022-10-25T18:42:31.056Z,59.02
2022-10-25T18:45:00.965Z,58.48
2022-10-25T18:47:32.514Z,58.17
2022-10-25T18:50:28.119Z,58.20
2022-10-25T18:53:22.716Z,58.13
2022-10-25T18:55:55.818Z,58.11
2022-10-25T18:58:34.863Z,58.12
2022-10-25T19:01:09.156Z,58.12
2022-10-25T19:04:03.568Z,58.47
2022-10-25T19:06:37.894Z,59.02
2022-10-25T19:09:09.938Z,58.92
2022-10-25T19:12:36.587Z,59.02
2022-10-25T19:15:13.705Z,59.24
2022-10-25T19:18:07.690Z,58.87
2022-10-25T19:20:46.967Z,58.92
2022-10-25T19:23:18.222Z,59.15
2022-10-25T19:25:50.467Z,59.23
2022-10-25T19:28:20.995Z,58.70
2022-10-25T19:30:52.411Z,58.66
2022-10-25T19:33:33.065Z,58.48
2022-10-25T19:36:18.445Z,58.53
2022-10-25T19:38:51.936Z,59.08
2022-10-25T19:41:27.293Z,59.32
2022-10-25T19:44:03.943Z,59.41
2022-10-25T19:47:04.552Z,59.43
2022-10-25T19:50:38.184Z,58.87
2022-10-25T19:53:40.784Z,59.01
2022-10-25T20:00:03.578Z,58.93
2022-10-25T20:02:40.321Z,58.94
2022-10-25T20:05:37.944Z,58.80
2022-10-25T20:08:14.968Z,58.81
2022-10-25T20:11:11.251Z,58.96
2022-10-25T20:14:07.712Z,59.05
2022-10-25T20:17:03.781Z,59.20
2022-10-25T20:20:01.734Z,59.26
2022-10-25T20:22:39.542Z,59.10
2022-10-25T20:25:16.840Z,59.00
2022-10-25T20:34:58.239Z,59.48
2022-10-25T20:37:57.251Z,59.85
2022-10-25T20:40:26.970Z,60.00
2022-10-25T20:42:58.353Z,60.03
2022-10-25T20:45:56.173Z,60.15
2022-10-25T20:48:35.111Z,60.07
2022-10-25T20:57:51.860Z,59.96
2022-10-25T21:00:25.227Z,60.06
2022-10-25T21:03:06.575Z,60.17
2022-10-25T21:05:47.592Z,60.26
2022-10-25T21:09:11.607Z,60.14
2022-10-25T21:14:58.450Z,60.23
2022-10-25T21:17:31.217Z,60.46
2022-10-25T21:20:01.593Z,60.78
2022-10-25T21:23:00.291Z,60.81
2022-10-25T21:25:30.427Z,60.85
2022-10-25T21:28:03.306Z,60.92
2022-10-25T21:30:34.877Z,60.77
2022-10-25T21:33:08.205Z,60.73
2022-10-25T21:39:11.104Z,60.84
2022-10-25T21:41:39.443Z,60.68
2022-10-25T21:44:39.308Z,60.76
2022-10-25T21:47:36.202Z,60.89
2022-10-25T21:50:59.772Z,60.97
2022-10-25T21:57:25.778Z,61.28
2022-10-25T22:00:01.210Z,61.22
2022-10-25T22:03:24.208Z,61.29
2022-10-25T22:05:56.681Z,61.02
2022-10-25T22:08:28.309Z,61.14
2022-10-25T22:11:49.823Z,61.09
2022-10-25T22:14:22.501Z,61.06
2022-10-25T22:16:51.743Z,61.21
2022-10-25T22:19:49.571Z,61.16
2022-10-25T22:22:44.145Z,61.26
2022-10-25T22:25:40.619Z,61.23
2022-10-25T22:28:19.731Z,61.16
2022-10-25T22:31:22.350Z,61.20
2022-10-25T22:34:42.256Z,61.28
2022-10-25T22:37:11.612Z,61.26
2022-10-25T22:39:44.269Z,61.15
2022-10-25T22:42:16.752Z,61.21
2022-10-25T22:44:47.088Z,61.40
2022-10-25T22:48:08.423Z,61.46
2022-10-25T22:51:09.535Z,61.35
2022-10-25T22:54:10.702Z,61.55
2022-10-25T23:00:26.612Z,61.82
2022-10-25T23:03:20.701Z,62.11
2022-10-25T23:06:04.150Z,61.97
2022-10-25T23:15:18.804Z,62.16
2022-10-25T23:18:06.779Z,62.20
2022-10-25T23:21:02.600Z,62.26
2022-10-25T23:24:26.171Z,62.18
2022-10-25T23:27:24.550Z,62.33
2022-10-25T23:30:00.409Z,62.26
2022-10-25T23:33:19.493Z,62.29
2022-10-25T23:36:42.553Z,62.32
2022-10-25T23:39:18.298Z,62.11
2022-10-25T23:41:59.146Z,62.12
2022-10-25T23:44:31.983Z,62.23
2022-10-25T23:47:05.759Z,62.24
2022-10-25T23:49:58.741Z,62.13
2022-10-25T23:55:35.494Z,62.01
2022-10-25T23:58:10.431Z,61.81
